sensor_id;sensor_type;location;lat;lon;timestamp;P1;durP1;ratioP1;P2;durP2;ratioP2
39218;SDS011;24934;52.752;6.964;2023-07-30T00:01:56;21.70;;;18.23;;
39218;SDS011;24934;52.752;6.964;2023-07-30T00:04:22;28.55;;;19.92;;
39218;SDS011;24934;52.752;6.964;2023-07-30T00:06:48;28.77;;;19.90;;
39218;SDS011;24934;52.752;6.964;2023-07-30T00:09:14;28.98;;;19.73;;
39218;SDS011;24934;52.752;6.964;2023-07-30T00:11:40;29.60;;;21.17;;
39218;SDS011;24934;52.752;6.964;2023-07-30T00:14:05;33.88;;;21.13;;
39218;SDS011;24934;52.752;6.964;2023-07-30T00:16:31;35.38;;;21.67;;
39218;SDS011;24934;52.752;6.964;2023-07-30T00:19:00;32.00;;;21.58;;
39218;SDS011;24934;52.752;6.964;2023-07-30T00:21:25;32.42;;;22.42;;
39218;SDS011;24934;52.752;6.964;2023-07-30T00:23:51;26.45;;;22.20;;
39218;SDS011;24934;52.752;6.964;2023-07-30T00:26:17;32.53;;;22.27;;
39218;SDS011;24934;52.752;6.964;2023-07-30T00:28:42;29.80;;;23.83;;
39218;SDS011;24934;52.752;6.964;2023-07-30T00:31:08;28.30;;;23.75;;
39218;SDS011;24934;52.752;6.964;2023-07-30T00:33:33;29.23;;;21.48;;
39218;SDS011;24934;52.752;6.964;2023-07-30T00:36:00;39.15;;;23.75;;
39218;SDS011;24934;52.752;6.964;2023-07-30T00:38:29;35.53;;;22.77;;
39218;SDS011;24934;52.752;6.964;2023-07-30T00:40:54;39.00;;;24.17;;
39218;SDS011;24934;52.752;6.964;2023-07-30T00:43:20;38.00;;;23.27;;
39218;SDS011;24934;52.752;6.964;2023-07-30T00:45:46;34.47;;;26.45;;
39218;SDS011;24934;52.752;6.964;2023-07-30T00:48:12;41.63;;;27.23;;
39218;SDS011;24934;52.752;6.964;2023-07-30T00:50:39;37.50;;;25.33;;
39218;SDS011;24934;52.752;6.964;2023-07-30T00:53:07;36.88;;;23.85;;
39218;SDS011;24934;52.752;6.964;2023-07-30T00:55:34;32.88;;;23.58;;
39218;SDS011;24934;52.752;6.964;2023-07-30T00:58:00;33.22;;;22.48;;
39218;SDS011;24934;52.752;6.964;2023-07-30T01:00:27;26.55;;;22.70;;
39218;SDS011;24934;52.752;6.964;2023-07-30T01:02:54;35.13;;;21.60;;
39218;SDS011;24934;52.752;6.964;2023-07-30T01:05:20;36.63;;;22.42;;
39218;SDS011;24934;52.752;6.964;2023-07-30T01:07:46;26.75;;;20.55;;
39218;SDS011;24934;52.752;6.964;2023-07-30T01:10:12;25.63;;;21.48;;
39218;SDS011;24934;52.752;6.964;2023-07-30T01:12:40;34.88;;;22.63;;
39218;SDS011;24934;52.752;6.964;2023-07-30T01:15:10;34.75;;;22.35;;
39218;SDS011;24934;52.752;6.964;2023-07-30T01:17:36;37.13;;;24.48;;
39218;SDS011;24934;52.752;6.964;2023-07-30T01:20:02;31.77;;;21.92;;
39218;SDS011;24934;52.752;6.964;2023-07-30T01:22:28;29.40;;;22.25;;
39218;SDS011;24934;52.752;6.964;2023-07-30T01:24:54;31.30;;;22.05;;
39218;SDS011;24934;52.752;6.964;2023-07-30T01:27:24;37.97;;;23.38;;
39218;SDS011;24934;52.752;6.964;2023-07-30T01:30:03;33.38;;;24.83;;
39218;SDS011;24934;52.752;6.964;2023-07-30T01:32:36;32.20;;;21.05;;
39218;SDS011;24934;52.752;6.964;2023-07-30T01:35:03;36.63;;;23.90;;
39218;SDS011;24934;52.752;6.964;2023-07-30T01:37:32;32.78;;;20.75;;
39218;SDS011;24934;52.752;6.964;2023-07-30T01:39:58;27.35;;;22.08;;
39218;SDS011;24934;52.752;6.964;2023-07-30T01:42:29;37.05;;;20.63;;
39218;SDS011;24934;52.752;6.964;2023-07-30T01:44:54;29.13;;;20.45;;
39218;SDS011;24934;52.752;6.964;2023-07-30T01:47:20;32.17;;;23.30;;
39218;SDS011;24934;52.752;6.964;2023-07-30T01:49:46;36.38;;;20.75;;
39218;SDS011;24934;52.752;6.964;2023-07-30T01:52:12;38.05;;;22.30;;
39218;SDS011;24934;52.752;6.964;2023-07-30T01:54:40;26.80;;;20.20;;
39218;SDS011;24934;52.752;6.964;2023-07-30T01:57:07;34.83;;;21.52;;
39218;SDS011;24934;52.752;6.964;2023-07-30T01:59:33;27.45;;;20.48;;
39218;SDS011;24934;52.752;6.964;2023-07-30T02:01:58;31.63;;;20.75;;
39218;SDS011;24934;52.752;6.964;2023-07-30T02:04:24;33.33;;;21.83;;
39218;SDS011;24934;52.752;6.964;2023-07-30T02:06:50;31.42;;;20.23;;
39218;SDS011;24934;52.752;6.964;2023-07-30T02:09:15;24.77;;;19.20;;
39218;SDS011;24934;52.752;6.964;2023-07-30T02:11:41;29.52;;;21.05;;
39218;SDS011;24934;52.752;6.964;2023-07-30T02:14:07;34.10;;;20.60;;
39218;SDS011;24934;52.752;6.964;2023-07-30T02:16:34;30.80;;;21.60;;
39218;SDS011;24934;52.752;6.964;2023-07-30T02:18:59;32.03;;;20.20;;
39218;SDS011;24934;52.752;6.964;2023-07-30T02:21:25;25.17;;;20.02;;
39218;SDS011;24934;52.752;6.964;2023-07-30T02:23:52;25.35;;;20.58;;
39218;SDS011;24934;52.752;6.964;2023-07-30T02:26:17;31.73;;;19.55;;
39218;SDS011;24934;52.752;6.964;2023-07-30T02:28:43;25.33;;;19.17;;
39218;SDS011;24934;52.752;6.964;2023-07-30T02:31:09;24.45;;;18.70;;
39218;SDS011;24934;52.752;6.964;2023-07-30T02:33:34;28.58;;;20.70;;
39218;SDS011;24934;52.752;6.964;2023-07-30T02:36:00;29.25;;;19.08;;
39218;SDS011;24934;52.752;6.964;2023-07-30T02:38:26;29.80;;;19.77;;
39218;SDS011;24934;52.752;6.964;2023-07-30T02:40:51;27.17;;;18.63;;
39218;SDS011;24934;52.752;6.964;2023-07-30T02:43:17;22.20;;;18.33;;
39218;SDS011;24934;52.752;6.964;2023-07-30T02:45:42;25.20;;;20.08;;
39218;SDS011;24934;52.752;6.964;2023-07-30T02:48:11;32.55;;;21.60;;
39218;SDS011;24934;52.752;6.964;2023-07-30T02:50:37;31.50;;;20.20;;
39218;SDS011;24934;52.752;6.964;2023-07-30T02:53:04;28.90;;;20.08;;
39218;SDS011;24934;52.752;6.964;2023-07-30T02:55:30;38.95;;;20.67;;
39218;SDS011;24934;52.752;6.964;2023-07-30T02:57:55;27.25;;;20.73;;
39218;SDS011;24934;52.752;6.964;2023-07-30T03:00:21;23.92;;;20.02;;
39218;SDS011;24934;52.752;6.964;2023-07-30T03:02:47;27.30;;;20.90;;
39218;SDS011;24934;52.752;6.964;2023-07-30T03:05:12;26.95;;;20.95;;
39218;SDS011;24934;52.752;6.964;2023-07-30T03:07:38;25.30;;;19.88;;
39218;SDS011;24934;52.752;6.964;2023-07-30T03:10:06;30.90;;;21.52;;
39218;SDS011;24934;52.752;6.964;2023-07-30T03:12:32;26.10;;;21.05;;
39218;SDS011;24934;52.752;6.964;2023-07-30T03:14:58;25.30;;;20.48;;
39218;SDS011;24934;52.752;6.964;2023-07-30T03:17:23;27.85;;;19.98;;
39218;SDS011;24934;52.752;6.964;2023-07-30T03:19:50;27.02;;;21.00;;
39218;SDS011;24934;52.752;6.964;2023-07-30T03:22:15;28.73;;;21.55;;
39218;SDS011;24934;52.752;6.964;2023-07-30T03:24:41;31.65;;;21.58;;
39218;SDS011;24934;52.752;6.964;2023-07-30T03:27:07;28.42;;;21.90;;
39218;SDS011;24934;52.752;6.964;2023-07-30T03:29:32;30.40;;;22.23;;
39218;SDS011;24934;52.752;6.964;2023-07-30T03:31:58;26.58;;;22.70;;
39218;SDS011;24934;52.752;6.964;2023-07-30T03:34:24;25.23;;;22.25;;
39218;SDS011;24934;52.752;6.964;2023-07-30T03:36:52;29.33;;;22.23;;
39218;SDS011;24934;52.752;6.964;2023-07-30T03:39:17;32.63;;;23.52;;
39218;SDS011;24934;52.752;6.964;2023-07-30T03:41:43;30.08;;;23.73;;
39218;SDS011;24934;52.752;6.964;2023-07-30T03:44:10;28.98;;;22.23;;
39218;SDS011;24934;52.752;6.964;2023-07-30T03:46:35;26.58;;;22.98;;
39218;SDS011;24934;52.752;6.964;2023-07-30T03:49:01;28.58;;;22.50;;
39218;SDS011;24934;52.752;6.964;2023-07-30T03:51:27;28.73;;;22.42;;
39218;SDS011;24934;52.752;6.964;2023-07-30T03:53:52;28.10;;;22.85;;
39218;SDS011;24934;52.752;6.964;2023-07-30T03:56:18;30.08;;;21.90;;
39218;SDS011;24934;52.752;6.964;2023-07-30T03:58:43;33.00;;;23.52;;
39218;SDS011;24934;52.752;6.964;2023-07-30T04:01:09;29.98;;;23.00;;
39218;SDS011;24934;52.752;6.964;2023-07-30T04:03:35;33.90;;;23.52;;
39218;SDS011;24934;52.752;6.964;2023-07-30T04:06:00;29.77;;;23.50;;
39218;SDS011;24934;52.752;6.964;2023-07-30T04:08:28;37.50;;;23.95;;
39218;SDS011;24934;52.752;6.964;2023-07-30T04:10:53;32.50;;;23.73;;
39218;SDS011;24934;52.752;6.964;2023-07-30T04:13:19;35.30;;;24.75;;
39218;SDS011;24934;52.752;6.964;2023-07-30T04:15:47;36.88;;;23.85;;
39218;SDS011;24934;52.752;6.964;2023-07-30T04:18:13;31.02;;;24.23;;
39218;SDS011;24934;52.752;6.964;2023-07-30T04:20:38;27.75;;;23.80;;
39218;SDS011;24934;52.752;6.964;2023-07-30T04:23:04;32.00;;;24.25;;
39218;SDS011;24934;52.752;6.964;2023-07-30T04:25:30;33.63;;;24.55;;
39218;SDS011;24934;52.752;6.964;2023-07-30T04:27:55;34.38;;;24.40;;
39218;SDS011;24934;52.752;6.964;2023-07-30T04:30:21;36.30;;;24.10;;
39218;SDS011;24934;52.752;6.964;2023-07-30T04:32:47;37.90;;;23.92;;
39218;SDS011;24934;52.752;6.964;2023-07-30T04:35:12;35.45;;;25.00;;
39218;SDS011;24934;52.752;6.964;2023-07-30T04:37:38;33.45;;;24.52;;
39218;SDS011;24934;52.752;6.964;2023-07-30T04:40:04;33.10;;;24.30;;
39218;SDS011;24934;52.752;6.964;2023-07-30T04:42:30;27.52;;;23.42;;
39218;SDS011;24934;52.752;6.964;2023-07-30T04:44:56;32.08;;;23.25;;
39218;SDS011;24934;52.752;6.964;2023-07-30T04:47:21;33.95;;;23.52;;
39218;SDS011;24934;52.752;6.964;2023-07-30T04:49:47;38.67;;;23.35;;
39218;SDS011;24934;52.752;6.964;2023-07-30T04:52:12;27.77;;;23.60;;
39218;SDS011;24934;52.752;6.964;2023-07-30T04:54:38;29.85;;;23.50;;
39218;SDS011;24934;52.752;6.964;2023-07-30T04:57:04;34.00;;;22.40;;
39218;SDS011;24934;52.752;6.964;2023-07-30T04:59:30;29.20;;;22.10;;
39218;SDS011;24934;52.752;6.964;2023-07-30T05:01:58;30.05;;;22.08;;
39218;SDS011;24934;52.752;6.964;2023-07-30T05:04:24;33.90;;;21.42;;
39218;SDS011;24934;52.752;6.964;2023-07-30T05:06:50;31.75;;;21.75;;
39218;SDS011;24934;52.752;6.964;2023-07-30T05:09:16;28.42;;;20.38;;
39218;SDS011;24934;52.752;6.964;2023-07-30T05:11:41;28.60;;;19.58;;
39218;SDS011;24934;52.752;6.964;2023-07-30T05:14:07;27.45;;;20.50;;
39218;SDS011;24934;52.752;6.964;2023-07-30T05:16:33;29.45;;;21.15;;
39218;SDS011;24934;52.752;6.964;2023-07-30T05:18:58;31.95;;;21.38;;
39218;SDS011;24934;52.752;6.964;2023-07-30T05:21:27;30.73;;;21.25;;
39218;SDS011;24934;52.752;6.964;2023-07-30T05:23:53;38.60;;;21.02;;
39218;SDS011;24934;52.752;6.964;2023-07-30T05:26:18;33.47;;;19.90;;
39218;SDS011;24934;52.752;6.964;2023-07-30T05:28:44;30.45;;;19.83;;
39218;SDS011;24934;52.752;6.964;2023-07-30T05:31:10;23.77;;;19.48;;
39218;SDS011;24934;52.752;6.964;2023-07-30T05:33:47;30.58;;;18.98;;
39218;SDS011;24934;52.752;6.964;2023-07-30T05:36:16;31.33;;;20.33;;
39218;SDS011;24934;52.752;6.964;2023-07-30T05:38:41;29.63;;;19.88;;
39218;SDS011;24934;52.752;6.964;2023-07-30T05:41:07;33.67;;;20.08;;
39218;SDS011;24934;52.752;6.964;2023-07-30T05:43:33;30.25;;;19.92;;
39218;SDS011;24934;52.752;6.964;2023-07-30T05:45:58;33.40;;;19.92;;
39218;SDS011;24934;52.752;6.964;2023-07-30T05:48:24;33.30;;;20.17;;
39218;SDS011;24934;52.752;6.964;2023-07-30T05:50:50;30.33;;;19.10;;
39218;SDS011;24934;52.752;6.964;2023-07-30T05:53:18;27.67;;;19.52;;
39218;SDS011;24934;52.752;6.964;2023-07-30T05:55:43;31.02;;;19.77;;
39218;SDS011;24934;52.752;6.964;2023-07-30T05:58:09;35.60;;;20.23;;
39218;SDS011;24934;52.752;6.964;2023-07-30T06:00:36;31.63;;;20.70;;
39218;SDS011;24934;52.752;6.964;2023-07-30T06:03:18;30.52;;;19.90;;
39218;SDS011;24934;52.752;6.964;2023-07-30T06:05:44;34.30;;;21.05;;
39218;SDS011;24934;52.752;6.964;2023-07-30T06:08:09;39.72;;;21.45;;
39218;SDS011;24934;52.752;6.964;2023-07-30T06:10:39;36.72;;;21.40;;
39218;SDS011;24934;52.752;6.964;2023-07-30T06:13:05;31.42;;;20.92;;
39218;SDS011;24934;52.752;6.964;2023-07-30T06:16:08;34.70;;;21.23;;
39218;SDS011;24934;52.752;6.964;2023-07-30T06:18:42;34.60;;;21.17;;
39218;SDS011;24934;52.752;6.964;2023-07-30T06:21:12;38.58;;;21.23;;
39218;SDS011;24934;52.752;6.964;2023-07-30T06:23:50;39.30;;;20.30;;
39218;SDS011;24934;52.752;6.964;2023-07-30T06:26:16;38.33;;;22.02;;
39218;SDS011;24934;52.752;6.964;2023-07-30T06:28:41;32.40;;;20.80;;
39218;SDS011;24934;52.752;6.964;2023-07-30T06:31:08;34.45;;;20.58;;
39218;SDS011;24934;52.752;6.964;2023-07-30T06:33:34;35.55;;;20.77;;
39218;SDS011;24934;52.752;6.964;2023-07-30T06:36:16;41.60;;;20.00;;
39218;SDS011;24934;52.752;6.964;2023-07-30T06:38:48;33.38;;;19.83;;
39218;SDS011;24934;52.752;6.964;2023-07-30T06:41:14;31.48;;;19.77;;
39218;SDS011;24934;52.752;6.964;2023-07-30T06:43:42;36.97;;;20.95;;
39218;SDS011;24934;52.752;6.964;2023-07-30T06:46:08;39.80;;;21.27;;
39218;SDS011;24934;52.752;6.964;2023-07-30T06:48:33;36.22;;;21.17;;
39218;SDS011;24934;52.752;6.964;2023-07-30T06:51:02;38.53;;;20.30;;
39218;SDS011;24934;52.752;6.964;2023-07-30T06:53:31;33.88;;;20.33;;
39218;SDS011;24934;52.752;6.964;2023-07-30T06:55:58;37.38;;;21.05;;
39218;SDS011;24934;52.752;6.964;2023-07-30T06:58:27;33.78;;;20.20;;
39218;SDS011;24934;52.752;6.964;2023-07-30T07:00:52;36.47;;;20.17;;
39218;SDS011;24934;52.752;6.964;2023-07-30T07:03:18;31.75;;;19.10;;
39218;SDS011;24934;52.752;6.964;2023-07-30T07:05:43;29.75;;;18.77;;
39218;SDS011;24934;52.752;6.964;2023-07-30T07:08:09;33.97;;;19.15;;
39218;SDS011;24934;52.752;6.964;2023-07-30T07:10:35;32.13;;;18.80;;
39218;SDS011;24934;52.752;6.964;2023-07-30T07:13:01;32.00;;;18.85;;
39218;SDS011;24934;52.752;6.964;2023-07-30T07:15:26;36.45;;;18.80;;
39218;SDS011;24934;52.752;6.964;2023-07-30T07:17:54;27.63;;;18.25;;
39218;SDS011;24934;52.752;6.964;2023-07-30T07:20:20;29.60;;;18.05;;
39218;SDS011;24934;52.752;6.964;2023-07-30T07:22:46;30.92;;;17.50;;
39218;SDS011;24934;52.752;6.964;2023-07-30T07:25:16;34.58;;;18.17;;
39218;SDS011;24934;52.752;6.964;2023-07-30T07:27:44;30.35;;;18.25;;
39218;SDS011;24934;52.752;6.964;2023-07-30T07:30:10;30.00;;;18.77;;
39218;SDS011;24934;52.752;6.964;2023-07-30T07:32:36;33.42;;;19.02;;
39218;SDS011;24934;52.752;6.964;2023-07-30T07:35:04;34.08;;;19.13;;
39218;SDS011;24934;52.752;6.964;2023-07-30T07:37:31;37.50;;;19.08;;
39218;SDS011;24934;52.752;6.964;2023-07-30T07:39:58;30.38;;;19.02;;
39218;SDS011;24934;52.752;6.964;2023-07-30T07:42:25;33.53;;;18.30;;
39218;SDS011;24934;52.752;6.964;2023-07-30T07:44:54;33.20;;;18.58;;
39218;SDS011;24934;52.752;6.964;2023-07-30T07:47:19;27.38;;;18.58;;
39218;SDS011;24934;52.752;6.964;2023-07-30T07:49:45;28.90;;;18.27;;
39218;SDS011;24934;52.752;6.964;2023-07-30T07:52:10;31.00;;;17.25;;
39218;SDS011;24934;52.752;6.964;2023-07-30T07:54:36;28.52;;;17.02;;
39218;SDS011;24934;52.752;6.964;2023-07-30T07:57:02;27.95;;;17.63;;
39218;SDS011;24934;52.752;6.964;2023-07-30T07:59:28;28.65;;;16.17;;
39218;SDS011;24934;52.752;6.964;2023-07-30T08:01:53;33.75;;;16.52;;
39218;SDS011;24934;52.752;6.964;2023-07-30T08:04:19;26.98;;;15.75;;
39218;SDS011;24934;52.752;6.964;2023-07-30T08:06:46;26.05;;;15.90;;
39218;SDS011;24934;52.752;6.964;2023-07-30T08:09:13;28.48;;;16.85;;
39218;SDS011;24934;52.752;6.964;2023-07-30T08:11:39;28.20;;;16.75;;
39218;SDS011;24934;52.752;6.964;2023-07-30T08:14:05;26.55;;;14.57;;
39218;SDS011;24934;52.752;6.964;2023-07-30T08:16:30;26.17;;;15.90;;
39218;SDS011;24934;52.752;6.964;2023-07-30T08:18:56;26.98;;;14.77;;
39218;SDS011;24934;52.752;6.964;2023-07-30T08:21:22;24.95;;;16.17;;
39218;SDS011;24934;52.752;6.964;2023-07-30T08:23:47;27.15;;;15.68;;
39218;SDS011;24934;52.752;6.964;2023-07-30T08:26:13;27.02;;;14.73;;
39218;SDS011;24934;52.752;6.964;2023-07-30T08:28:40;25.73;;;14.93;;
39218;SDS011;24934;52.752;6.964;2023-07-30T08:31:05;26.98;;;15.88;;
39218;SDS011;24934;52.752;6.964;2023-07-30T08:33:31;27.75;;;16.08;;
39218;SDS011;24934;52.752;6.964;2023-07-30T08:35:58;32.05;;;15.50;;
39218;SDS011;24934;52.752;6.964;2023-07-30T08:38:24;22.88;;;15.15;;
39218;SDS011;24934;52.752;6.964;2023-07-30T08:40:50;27.73;;;14.23;;
39218;SDS011;24934;52.752;6.964;2023-07-30T08:43:18;25.05;;;14.55;;
39218;SDS011;24934;52.752;6.964;2023-07-30T08:45:44;24.52;;;15.25;;
39218;SDS011;24934;52.752;6.964;2023-07-30T08:48:10;24.58;;;14.82;;
39218;SDS011;24934;52.752;6.964;2023-07-30T08:50:35;22.65;;;13.40;;
39218;SDS011;24934;52.752;6.964;2023-07-30T08:53:02;19.23;;;13.95;;
39218;SDS011;24934;52.752;6.964;2023-07-30T08:55:28;27.60;;;14.57;;
39218;SDS011;24934;52.752;6.964;2023-07-30T08:57:55;24.85;;;15.07;;
39218;SDS011;24934;52.752;6.964;2023-07-30T09:00:23;22.92;;;15.00;;
39218;SDS011;24934;52.752;6.964;2023-07-30T09:02:54;23.27;;;14.50;;
39218;SDS011;24934;52.752;6.964;2023-07-30T09:05:24;20.13;;;13.05;;
39218;SDS011;24934;52.752;6.964;2023-07-30T09:07:53;21.38;;;13.07;;
39218;SDS011;24934;52.752;6.964;2023-07-30T09:10:19;21.80;;;14.02;;
39218;SDS011;24934;52.752;6.964;2023-07-30T09:12:45;21.85;;;14.50;;
39218;SDS011;24934;52.752;6.964;2023-07-30T09:15:11;20.40;;;13.50;;
39218;SDS011;24934;52.752;6.964;2023-07-30T09:17:36;24.80;;;14.65;;
39218;SDS011;24934;52.752;6.964;2023-07-30T09:20:02;22.67;;;14.48;;
39218;SDS011;24934;52.752;6.964;2023-07-30T09:22:31;21.52;;;13.77;;
39218;SDS011;24934;52.752;6.964;2023-07-30T09:25:00;21.77;;;15.50;;
39218;SDS011;24934;52.752;6.964;2023-07-30T09:27:27;21.83;;;13.75;;
39218;SDS011;24934;52.752;6.964;2023-07-30T09:29:54;20.30;;;14.45;;
39218;SDS011;24934;52.752;6.964;2023-07-30T09:32:25;20.15;;;14.05;;
39218;SDS011;24934;52.752;6.964;2023-07-30T09:34:51;21.85;;;14.43;;
39218;SDS011;24934;52.752;6.964;2023-07-30T09:37:17;20.80;;;14.18;;
39218;SDS011;24934;52.752;6.964;2023-07-30T09:39:43;23.55;;;14.45;;
39218;SDS011;24934;52.752;6.964;2023-07-30T09:42:09;26.08;;;14.02;;
39218;SDS011;24934;52.752;6.964;2023-07-30T09:44:35;21.30;;;14.05;;
39218;SDS011;24934;52.752;6.964;2023-07-30T09:47:03;20.20;;;13.38;;
39218;SDS011;24934;52.752;6.964;2023-07-30T09:49:30;18.73;;;13.88;;
39218;SDS011;24934;52.752;6.964;2023-07-30T09:51:57;20.15;;;14.00;;
39218;SDS011;24934;52.752;6.964;2023-07-30T09:54:23;23.65;;;15.23;;
39218;SDS011;24934;52.752;6.964;2023-07-30T09:56:49;25.83;;;15.70;;
39218;SDS011;24934;52.752;6.964;2023-07-30T09:59:14;26.13;;;15.18;;
39218;SDS011;24934;52.752;6.964;2023-07-30T10:01:44;21.08;;;14.95;;
39218;SDS011;24934;52.752;6.964;2023-07-30T10:04:11;20.90;;;15.18;;
39218;SDS011;24934;52.752;6.964;2023-07-30T10:06:38;20.52;;;13.50;;
39218;SDS011;24934;52.752;6.964;2023-07-30T10:09:11;21.67;;;14.73;;
39218;SDS011;24934;52.752;6.964;2023-07-30T10:11:39;26.10;;;14.40;;
39218;SDS011;24934;52.752;6.964;2023-07-30T10:14:06;23.40;;;13.88;;
39218;SDS011;24934;52.752;6.964;2023-07-30T10:16:32;20.60;;;15.38;;
39218;SDS011;24934;52.752;6.964;2023-07-30T10:18:58;21.15;;;13.93;;
39218;SDS011;24934;52.752;6.964;2023-07-30T10:21:25;20.65;;;13.95;;
39218;SDS011;24934;52.752;6.964;2023-07-30T10:23:58;17.10;;;12.75;;
39218;SDS011;24934;52.752;6.964;2023-07-30T10:26:31;18.63;;;12.88;;
39218;SDS011;24934;52.752;6.964;2023-07-30T10:29:15;16.73;;;13.50;;
39218;SDS011;24934;52.752;6.964;2023-07-30T10:31:49;30.58;;;14.95;;
39218;SDS011;24934;52.752;6.964;2023-07-30T10:34:20;19.95;;;14.65;;
39218;SDS011;24934;52.752;6.964;2023-07-30T10:36:47;18.40;;;14.27;;
39218;SDS011;24934;52.752;6.964;2023-07-30T10:39:18;19.90;;;12.80;;
39218;SDS011;24934;52.752;6.964;2023-07-30T10:41:54;21.33;;;13.27;;
39218;SDS011;24934;52.752;6.964;2023-07-30T10:44:24;16.23;;;13.32;;
39218;SDS011;24934;52.752;6.964;2023-07-30T10:46:55;14.75;;;12.52;;
39218;SDS011;24934;52.752;6.964;2023-07-30T10:49:22;15.52;;;12.20;;
39218;SDS011;24934;52.752;6.964;2023-07-30T10:51:48;15.60;;;12.30;;
39218;SDS011;24934;52.752;6.964;2023-07-30T10:54:16;16.83;;;12.20;;
39218;SDS011;24934;52.752;6.964;2023-07-30T10:56:42;11.98;;;10.75;;
39218;SDS011;24934;52.752;6.964;2023-07-30T10:59:08;13.13;;;11.02;;
39218;SDS011;24934;52.752;6.964;2023-07-30T11:01:37;13.82;;;10.60;;
39218;SDS011;24934;52.752;6.964;2023-07-30T11:04:08;12.20;;;10.90;;
39218;SDS011;24934;52.752;6.964;2023-07-30T11:06:35;12.50;;;10.98;;
39218;SDS011;24934;52.752;6.964;2023-07-30T11:09:00;11.82;;;10.63;;
39218;SDS011;24934;52.752;6.964;2023-07-30T11:11:26;11.55;;;10.50;;
39218;SDS011;24934;52.752;6.964;2023-07-30T11:13:52;11.73;;;10.57;;
39218;SDS011;24934;52.752;6.964;2023-07-30T11:16:17;13.57;;;10.73;;
39218;SDS011;24934;52.752;6.964;2023-07-30T11:18:43;12.50;;;10.43;;
39218;SDS011;24934;52.752;6.964;2023-07-30T11:21:12;15.82;;;11.85;;
39218;SDS011;24934;52.752;6.964;2023-07-30T11:23:40;15.93;;;12.48;;
39218;SDS011;24934;52.752;6.964;2023-07-30T11:26:07;14.63;;;12.63;;
39218;SDS011;24934;52.752;6.964;2023-07-30T11:28:35;15.70;;;12.52;;
39218;SDS011;24934;52.752;6.964;2023-07-30T11:31:02;14.48;;;12.13;;
39218;SDS011;24934;52.752;6.964;2023-07-30T11:33:30;16.85;;;11.77;;
39218;SDS011;24934;52.752;6.964;2023-07-30T11:35:59;14.07;;;12.43;;
39218;SDS011;24934;52.752;6.964;2023-07-30T11:38:26;14.10;;;12.80;;
39218;SDS011;24934;52.752;6.964;2023-07-30T11:40:53;14.85;;;13.07;;
39218;SDS011;24934;52.752;6.964;2023-07-30T11:43:20;13.38;;;12.05;;
39218;SDS011;24934;52.752;6.964;2023-07-30T11:45:46;14.80;;;13.25;;
39218;SDS011;24934;52.752;6.964;2023-07-30T11:48:15;14.05;;;12.45;;
39218;SDS011;24934;52.752;6.964;2023-07-30T11:50:50;13.10;;;11.60;;
39218;SDS011;24934;52.752;6.964;2023-07-30T11:53:17;16.00;;;12.48;;
39218;SDS011;24934;52.752;6.964;2023-07-30T11:55:43;12.73;;;11.50;;
39218;SDS011;24934;52.752;6.964;2023-07-30T11:58:10;13.57;;;12.15;;
39218;SDS011;24934;52.752;6.964;2023-07-30T12:00:37;13.98;;;11.52;;
39218;SDS011;24934;52.752;6.964;2023-07-30T12:03:06;15.23;;;11.35;;
39218;SDS011;24934;52.752;6.964;2023-07-30T12:05:36;13.35;;;9.88;;
39218;SDS011;24934;52.752;6.964;2023-07-30T12:08:03;14.80;;;10.43;;
39218;SDS011;24934;52.752;6.964;2023-07-30T12:10:44;12.52;;;9.70;;
39218;SDS011;24934;52.752;6.964;2023-07-30T12:15:44;14.93;;;11.13;;
39218;SDS011;24934;52.752;6.964;2023-07-30T12:18:21;14.30;;;12.02;;
39218;SDS011;24934;52.752;6.964;2023-07-30T12:20:49;17.52;;;12.70;;
39218;SDS011;24934;52.752;6.964;2023-07-30T12:23:18;12.77;;;11.57;;
39218;SDS011;24934;52.752;6.964;2023-07-30T12:25:45;15.30;;;13.02;;
39218;SDS011;24934;52.752;6.964;2023-07-30T12:28:12;14.43;;;12.45;;
39218;SDS011;24934;52.752;6.964;2023-07-30T12:30:38;14.15;;;12.65;;
39218;SDS011;24934;52.752;6.964;2023-07-30T12:33:04;13.63;;;12.23;;
39218;SDS011;24934;52.752;6.964;2023-07-30T12:35:31;13.57;;;10.82;;
39218;SDS011;24934;52.752;6.964;2023-07-30T12:37:57;14.27;;;12.38;;
39218;SDS011;24934;52.752;6.964;2023-07-30T12:40:23;15.98;;;10.98;;
39218;SDS011;24934;52.752;6.964;2023-07-30T12:42:49;14.52;;;10.40;;
39218;SDS011;24934;52.752;6.964;2023-07-30T12:45:15;12.00;;;10.15;;
39218;SDS011;24934;52.752;6.964;2023-07-30T12:47:41;12.50;;;11.23;;
39218;SDS011;24934;52.752;6.964;2023-07-30T12:50:07;11.93;;;10.60;;
39218;SDS011;24934;52.752;6.964;2023-07-30T12:52:33;16.42;;;10.48;;
39218;SDS011;24934;52.752;6.964;2023-07-30T12:55:00;11.50;;;10.40;;
39218;SDS011;24934;52.752;6.964;2023-07-30T12:57:26;15.20;;;11.52;;
39218;SDS011;24934;52.752;6.964;2023-07-30T12:59:52;14.02;;;11.70;;
39218;SDS011;24934;52.752;6.964;2023-07-30T13:02:17;13.52;;;11.65;;
39218;SDS011;24934;52.752;6.964;2023-07-30T13:04:43;15.43;;;12.32;;
39218;SDS011;24934;52.752;6.964;2023-07-30T13:07:09;12.38;;;11.05;;
39218;SDS011;24934;52.752;6.964;2023-07-30T13:09:35;12.35;;;11.15;;
39218;SDS011;24934;52.752;6.964;2023-07-30T13:12:00;14.63;;;11.43;;
39218;SDS011;24934;52.752;6.964;2023-07-30T13:14:26;12.38;;;11.13;;
39218;SDS011;24934;52.752;6.964;2023-07-30T13:16:51;12.30;;;11.13;;
39218;SDS011;24934;52.752;6.964;2023-07-30T13:19:17;12.15;;;10.70;;
39218;SDS011;24934;52.752;6.964;2023-07-30T13:21:43;12.73;;;10.52;;
39218;SDS011;24934;52.752;6.964;2023-07-30T13:24:08;14.15;;;11.45;;
39218;SDS011;24934;52.752;6.964;2023-07-30T13:26:35;12.80;;;11.02;;
39218;SDS011;24934;52.752;6.964;2023-07-30T13:29:01;12.10;;;10.95;;
39218;SDS011;24934;52.752;6.964;2023-07-30T13:31:26;10.98;;;9.88;;
39218;SDS011;24934;52.752;6.964;2023-07-30T13:33:52;12.05;;;10.02;;
39218;SDS011;24934;52.752;6.964;2023-07-30T13:36:18;12.48;;;9.25;;
39218;SDS011;24934;52.752;6.964;2023-07-30T13:38:43;12.52;;;9.65;;
39218;SDS011;24934;52.752;6.964;2023-07-30T13:41:09;12.63;;;8.98;;
39218;SDS011;24934;52.752;6.964;2023-07-30T13:43:35;12.65;;;9.68;;
39218;SDS011;24934;52.752;6.964;2023-07-30T13:46:00;11.85;;;10.32;;
39218;SDS011;24934;52.752;6.964;2023-07-30T13:48:26;15.32;;;10.38;;
39218;SDS011;24934;52.752;6.964;2023-07-30T13:50:52;12.75;;;11.48;;
39218;SDS011;24934;52.752;6.964;2023-07-30T13:53:18;13.82;;;10.40;;
39218;SDS011;24934;52.752;6.964;2023-07-30T13:55:44;15.82;;;10.20;;
39218;SDS011;24934;52.752;6.964;2023-07-30T13:58:11;10.32;;;9.27;;
39218;SDS011;24934;52.752;6.964;2023-07-30T14:00:36;12.40;;;10.48;;
39218;SDS011;24934;52.752;6.964;2023-07-30T14:03:05;14.23;;;10.60;;
39218;SDS011;24934;52.752;6.964;2023-07-30T14:05:31;14.55;;;10.82;;
39218;SDS011;24934;52.752;6.964;2023-07-30T14:07:57;11.63;;;10.05;;
39218;SDS011;24934;52.752;6.964;2023-07-30T14:10:23;14.68;;;10.55;;
39218;SDS011;24934;52.752;6.964;2023-07-30T14:12:49;14.60;;;10.68;;
39218;SDS011;24934;52.752;6.964;2023-07-30T14:15:14;14.85;;;10.02;;
39218;SDS011;24934;52.752;6.964;2023-07-30T14:17:41;12.65;;;10.60;;
39218;SDS011;24934;52.752;6.964;2023-07-30T14:20:07;12.85;;;11.15;;
39218;SDS011;24934;52.752;6.964;2023-07-30T14:22:33;15.38;;;11.60;;